Regal Princess — ZCEK6 — position and weather

sailwx.info

Track history (hours):
 
Tides and Currents Weather Stations Pressure Air Temp Water Temp Dewpoint Dewpoint Depression Visibility Wind Speed Wind Dir Waves Ship Positions

Regal Princess

Last reported at 2017-Oct-22 17:00 UTC. Time now 2017-Oct-22 17:13 UTC.
Position N 42°01' W 068°27'.

Length 330 m; draft 8.5 m.

Type: Ship. MMSI: 310674000.

Date/timePositionNaut miles runAvg speedWind from/ knotsBaromVisibWave heightAir tempDewpointWater temp
2017-Oct-22 17:00N 42°01' W 068°27'917.3
2017-Oct-22 16:30N 41°53' W 068°32'917.2
2017-Oct-22 16:00N 41°45' W 068°35'917.3
2017-Oct-22 15:30N 41°36' W 068°38'917.9
2017-Oct-22 15:00N 41°27' W 068°42'918.2
2017-Oct-22 14:30N 41°19' W 068°45'918.4
2017-Oct-22 14:00N 41°10' W 068°48'1118.3
2017-Oct-22 13:26N 40°60' W 068°52'1317.6
2017-Oct-22 12:43N 40°48' W 068°57'416.9
2017-Oct-22 12:27N 40°44' W 068°59'816.9
2017-Oct-22 11:58N 40°36' W 069°03'1415.6
2017-Oct-22 11:04N 40°28' W 069°18'116.2
2017-Oct-22 11:00N 40°28' W 069°19'816.2
2017-Oct-22 10:30N 40°26' W 069°30'816.3
2017-Oct-22 10:00N 40°26' W 069°40'816.7
2017-Oct-22 09:30N 40°26' W 069°51'916.6
2017-Oct-22 08:58N 40°26' W 070°03'816.7
2017-Oct-22 08:30N 40°25' W 070°13'816.2
2017-Oct-22 08:00N 40°25' W 070°24'816.1
2017-Oct-22 07:30N 40°25' W 070°34'917.9
2017-Oct-22 07:00N 40°25' W 070°46'815.5
2017-Oct-22 06:30N 40°25' W 070°56'816.6
2017-Oct-22 06:01N 40°24' W 071°07'816.3
2017-Oct-22 05:30N 40°24' W 071°18'816.6
2017-Oct-22 05:01N 40°24' W 071°29'816.8
2017-Oct-22 04:30N 40°24' W 071°40'816.9
2017-Oct-22 04:00N 40°23' W 071°51'917.1
2017-Oct-22 03:31N 40°23' W 072°02'917.0
2017-Oct-22 03:00N 40°23' W 072°13'816.8
2017-Oct-22 02:31N 40°23' W 072°24'816.8
2017-Oct-22 02:01N 40°23' W 072°35'917.0
2017-Oct-22 01:30N 40°22' W 072°47'817.1
2017-Oct-22 01:00N 40°22' W 072°58'816.7
2017-Oct-22 00:30N 40°22' W 073°09'816.5
2017-Oct-22 00:00N 40°23' W 073°19'816.3
2017-Oct-21 23:30N 40°24' W 073°30'816.1
2017-Oct-21 23:00N 40°26' W 073°41'713.6
2017-Oct-21 22:30N 40°27' W 073°49'816.3
2017-Oct-21 21:59N 40°31' W 073°59'816.7
2017-Oct-21 21:30N 40°38' W 074°03'3 6.2
2017-Oct-21 21:00N 40°41' W 074°01'0 0.0
2017-Oct-21 20:30N 40°41' W 074°01'0 0.0
2017-Oct-21 20:00N 40°41' W 074°01'0 0.0
2017-Oct-21 19:30N 40°41' W 074°01'0 0.0
2017-Oct-21 19:00N 40°41' W 074°01'0 0.0
2017-Oct-21 18:30N 40°41' W 074°01'0 0.0
2017-Oct-21 18:00N 40°41' W 074°01'0 0.0
2017-Oct-21 17:30N 40°41' W 074°01'0 0.0
2017-Oct-21 17:00N 40°41' W 074°01'0 0.0
2017-Oct-21 16:30N 40°41' W 074°01'0 0.0
2017-Oct-21 16:00N 40°41' W 074°01'0 0.0
2017-Oct-21 15:30N 40°41' W 074°01'0 0.0
2017-Oct-21 15:00N 40°41' W 074°01'0 0.0
2017-Oct-21 14:00N 40°41' W 074°01'0 0.0
2017-Oct-21 13:30N 40°41' W 074°01'0 0.0
2017-Oct-21 13:00N 40°41' W 074°01'0 0.0
2017-Oct-21 12:30N 40°41' W 074°01'0 0.0
2017-Oct-21 12:00N 40°41' W 074°01'0 0.0
2017-Oct-21 11:30N 40°41' W 074°01'0 0.0
2017-Oct-21 11:00N 40°41' W 074°01'0 0.0
2017-Oct-21 10:30N 40°41' W 074°01'0 0.1
2017-Oct-21 10:00N 40°41' W 074°01'1 2.0
2017-Oct-21 09:30N 40°41' W 074°02'4 8.6
2017-Oct-21 09:00N 40°36' W 074°03'612.9
2017-Oct-21 08:30N 40°31' W 073°58'815.1
2017-Oct-21 08:00N 40°27' W 073°49'4 8.2
2017-Oct-21 07:30N 40°27' W 073°44'713.3
2017-Oct-21 07:00N 40°28' W 073°35'8220.4
2017-Oct-21 03:00N 40°30' W 071°48'346 8.4 320 / 201020.710.8 18.510.115.5
2017-Oct-19 10:00N 43°24' W 065°06'115 7.2 190 / 31025.210.8 13.311.813.2
2017-Oct-18 18:00N 45°12' W 066°00'24 2.7 270 / 161018.0 1.1 17.0 4.310.9
2017-Oct-18 09:00N 44°48' W 066°06'5711.4 230 / 261018.010.8 12.5 8.510.5
2017-Oct-18 04:00N 44°06' W 067°00'77 3.8 230 / 181020.910.8 11.0 4.311.0
2017-Oct-17 07:31N 43°43' W 068°42'120.9
2017-Oct-17 07:28N 43°42' W 068°43'7120.0
2017-Oct-17 03:54N 42°53' W 069°54'616.0
2017-Oct-17 03:30N 42°49' W 069°60'815.9
2017-Oct-17 03:00N 42°43' W 070°08'1019.2
2017-Oct-17 02:30N 42°37' W 070°17'1019.5
2017-Oct-17 02:01N 42°30' W 070°27'1019.6
2017-Oct-17 01:30N 42°26' W 070°39'918.1
2017-Oct-17 01:00N 42°23' W 070°51'612.5
2017-Oct-17 00:30N 42°20' W 070°58'3 5.4
2017-Oct-17 00:00N 42°21' W 071°01'0 0.5
2017-Oct-16 23:28N 42°21' W 071°02'0 0.0
2017-Oct-16 22:58N 42°21' W 071°02'0 0.0
2017-Oct-16 22:28N 42°21' W 071°02'0 0.0
2017-Oct-16 21:58N 42°21' W 071°02'0 0.0
2017-Oct-16 21:28N 42°21' W 071°02'0 0.0
2017-Oct-16 20:58N 42°21' W 071°02'0 0.0
2017-Oct-16 20:28N 42°21' W 071°02'0 0.0
2017-Oct-16 19:58N 42°21' W 071°02'0 0.0
2017-Oct-16 19:28N 42°21' W 071°02'0 0.0
2017-Oct-16 18:58N 42°21' W 071°02'0 0.0
2017-Oct-16 18:28N 42°21' W 071°02'0 0.0
2017-Oct-16 17:58N 42°21' W 071°02'0 0.0
2017-Oct-16 17:28N 42°21' W 071°02'0 0.0
2017-Oct-16 16:58N 42°21' W 071°02'0 0.0
2017-Oct-16 16:30N 42°21' W 071°02'0 0.0
2017-Oct-16 16:00N 42°21' W 071°02'0 0.0
2017-Oct-16 15:30N 42°21' W 071°02'0 0.0
2017-Oct-16 15:00N 42°21' W 071°02'2 2.4
2017-Oct-16 14:00N 42°20' W 070°59'612.6
2017-Oct-16 13:31N 42°24' W 070°52'612.1
2017-Oct-16 13:00N 42°23' W 070°44'816.7
2017-Oct-16 12:30N 42°22' W 070°33'816.7
2017-Oct-16 12:00N 42°21' W 070°21'816.7
2017-Oct-16 11:30N 42°20' W 070°10'816.2
2017-Oct-16 10:59N 42°18' W 069°59'11616.8
2017-Oct-16 04:03N 40°27' W 069°15'219.9
2017-Oct-16 03:58N 40°27' W 069°17'4221.3
2017-Oct-16 02:00N 40°24' W 070°12'411.4 220 / 351012.310.8 19.517.916.2
2017-Oct-16 01:39N 40°25' W 070°17'719.1
2017-Oct-16 01:15N 40°30' W 070°25'620.1
2017-Oct-16 00:58N 40°34' W 070°29'3620.2
2017-Oct-15 23:13N 41°02' W 070°58'419.8
2017-Oct-15 23:00N 41°06' W 071°01'1019.5
2017-Oct-15 22:31N 41°14' W 071°08'1019.8
2017-Oct-15 22:00N 41°21' W 071°17'811.6
2017-Oct-15 21:20N 41°28' W 071°22'2 1.7
2017-Oct-15 20:24N 41°29' W 071°20'0 0.0
2017-Oct-15 19:54N 41°29' W 071°20'0 0.0
2017-Oct-15 13:54N 41°29' W 071°20'0 0.0
2017-Oct-15 13:30N 41°29' W 071°20'0 0.0
2017-Oct-15 10:54N 41°29' W 071°20'5610.7
2017-Oct-15 05:43N 40°40' W 071°54'314.0
2017-Oct-15 05:30N 40°38' W 071°57'813.9
2017-Oct-15 04:57N 40°33' W 072°05'814.0
2017-Oct-15 04:21N 40°27' W 072°12'713.7
2017-Oct-15 03:49N 40°23' W 072°20'513.6
2017-Oct-15 03:29N 40°23' W 072°26'713.7
2017-Oct-15 03:00N 40°23' W 072°35'713.8
2017-Oct-15 02:30N 40°23' W 072°44'713.9
2017-Oct-15 01:59N 40°23' W 072°53'713.8
2017-Oct-15 01:30N 40°23' W 073°02'713.5
2017-Oct-15 01:00N 40°24' W 073°11'713.7
2017-Oct-15 00:31N 40°24' W 073°20'714.1
2017-Oct-15 00:01N 40°25' W 073°29'713.7
2017-Oct-14 23:30N 40°26' W 073°38'713.8
2017-Oct-14 23:01N 40°27' W 073°47'612.0
2017-Oct-14 22:30N 40°29' W 073°54'815.6
2017-Oct-14 22:00N 40°34' W 074°02'612.0
2017-Oct-14 21:30N 40°40' W 074°02'1 2.2
2017-Oct-14 20:55N 40°41' W 074°01'0 0.0
2017-Oct-14 20:28N 40°41' W 074°01'0 0.0
2017-Oct-14 19:52N 40°41' W 074°01'0 0.0
2017-Oct-14 19:28N 40°41' W 074°01'0 0.0
2017-Oct-14 18:52N 40°41' W 074°01'0 0.0
2017-Oct-14 18:28N 40°41' W 074°01'0 0.0
2017-Oct-14 17:55N 40°41' W 074°01'0 0.0
2017-Oct-14 17:28N 40°41' W 074°01'0 0.0
2017-Oct-14 16:58N 40°41' W 074°01'0 0.0
2017-Oct-14 16:28N 40°41' W 074°01'0 0.0
2017-Oct-14 15:58N 40°41' W 074°01'0 0.0
2017-Oct-14 15:28N 40°41' W 074°01'0 0.0
2017-Oct-14 14:58N 40°41' W 074°01'0 0.0
2017-Oct-14 14:28N 40°41' W 074°01'0 0.0
2017-Oct-14 13:58N 40°41' W 074°01'0 0.0
2017-Oct-14 13:30N 40°41' W 074°01'0 0.0
2017-Oct-14 13:00N 40°41' W 074°01'0 0.0
2017-Oct-14 12:30N 40°41' W 074°01'0 0.0
2017-Oct-14 12:00N 40°41' W 074°01'0 0.0
2017-Oct-14 11:29N 40°41' W 074°01'0 0.0
2017-Oct-14 10:59N 40°41' W 074°01'0 0.0
2017-Oct-14 10:28N 40°41' W 074°01'0 0.1
2017-Oct-14 10:00N 40°41' W 074°01'0 1.0
2017-Oct-14 09:30N 40°41' W 074°02'4 8.0
2017-Oct-14 09:00N 40°37' W 074°03'713.4
2017-Oct-14 08:30N 40°31' W 073°59'814.8
2017-Oct-14 07:59N 40°28' W 073°50'4 8.4
2017-Oct-14 07:30N 40°27' W 073°44'11615.4
2017-Oct-14 00:00N 40°30' W 071°12'3618.2 090 / 201027.510.8 16.513.915.9
2017-Oct-13 22:00N 40°30' W 070°24'15717.5 090 / 181028.410.8 16.013.314.0
2017-Oct-13 13:00N 41°18' W 067°06'5418.0 070 / 171032.710.8 13.510.612.2
2017-Oct-13 10:00N 41°54' W 066°12'15717.4 080 / 181032.210.8 13.0 7.912.7
2017-Oct-13 01:00N 43°54' W 063°54'   020 / 281030.810.8 11.0 3.014.6
Track history (hours):
 
Tides and Currents Weather Stations Pressure Air Temp Water Temp Dewpoint Dewpoint Depression Visibility Wind Speed Wind Dir Waves Ship Positions

Regal Princess

Last reported at 2017-Oct-22 17:00 UTC. Time now 2017-Oct-22 17:13 UTC.
Position N 42°01' W 068°27'.

Length 330 m; draft 8.5 m.

Type: Ship. MMSI: 310674000.

Date/timePositionNaut miles runAvg speedWind from/ knotsBaromVisibWave heightAir tempDewpointWater temp
2017-Oct-22 17:00N 42°01' W 068°27'917.3
2017-Oct-22 16:30N 41°53' W 068°32'917.2
2017-Oct-22 16:00N 41°45' W 068°35'917.3
2017-Oct-22 15:30N 41°36' W 068°38'917.9
2017-Oct-22 15:00N 41°27' W 068°42'918.2
2017-Oct-22 14:30N 41°19' W 068°45'918.4
2017-Oct-22 14:00N 41°10' W 068°48'1118.3
2017-Oct-22 13:26N 40°60' W 068°52'1317.6
2017-Oct-22 12:43N 40°48' W 068°57'416.9
2017-Oct-22 12:27N 40°44' W 068°59'816.9
2017-Oct-22 11:58N 40°36' W 069°03'1415.6
2017-Oct-22 11:04N 40°28' W 069°18'116.2
2017-Oct-22 11:00N 40°28' W 069°19'816.2
2017-Oct-22 10:30N 40°26' W 069°30'816.3
2017-Oct-22 10:00N 40°26' W 069°40'816.7
2017-Oct-22 09:30N 40°26' W 069°51'916.6
2017-Oct-22 08:58N 40°26' W 070°03'816.7
2017-Oct-22 08:30N 40°25' W 070°13'816.2
2017-Oct-22 08:00N 40°25' W 070°24'816.1
2017-Oct-22 07:30N 40°25' W 070°34'917.9
2017-Oct-22 07:00N 40°25' W 070°46'815.5
2017-Oct-22 06:30N 40°25' W 070°56'816.6
2017-Oct-22 06:01N 40°24' W 071°07'816.3
2017-Oct-22 05:30N 40°24' W 071°18'816.6
2017-Oct-22 05:01N 40°24' W 071°29'816.8
2017-Oct-22 04:30N 40°24' W 071°40'816.9
2017-Oct-22 04:00N 40°23' W 071°51'917.1
2017-Oct-22 03:31N 40°23' W 072°02'917.0
2017-Oct-22 03:00N 40°23' W 072°13'816.8
2017-Oct-22 02:31N 40°23' W 072°24'816.8
2017-Oct-22 02:01N 40°23' W 072°35'917.0
2017-Oct-22 01:30N 40°22' W 072°47'817.1
2017-Oct-22 01:00N 40°22' W 072°58'816.7
2017-Oct-22 00:30N 40°22' W 073°09'816.5
2017-Oct-22 00:00N 40°23' W 073°19'816.3
2017-Oct-21 23:30N 40°24' W 073°30'816.1
2017-Oct-21 23:00N 40°26' W 073°41'713.6
2017-Oct-21 22:30N 40°27' W 073°49'816.3
2017-Oct-21 21:59N 40°31' W 073°59'816.7
2017-Oct-21 21:30N 40°38' W 074°03'3 6.2
2017-Oct-21 21:00N 40°41' W 074°01'0 0.0
2017-Oct-21 20:30N 40°41' W 074°01'0 0.0
2017-Oct-21 20:00N 40°41' W 074°01'0 0.0
2017-Oct-21 19:30N 40°41' W 074°01'0 0.0
2017-Oct-21 19:00N 40°41' W 074°01'0 0.0
2017-Oct-21 18:30N 40°41' W 074°01'0 0.0
2017-Oct-21 18:00N 40°41' W 074°01'0 0.0
2017-Oct-21 17:30N 40°41' W 074°01'0 0.0
2017-Oct-21 17:00N 40°41' W 074°01'0 0.0
2017-Oct-21 16:30N 40°41' W 074°01'0 0.0
2017-Oct-21 16:00N 40°41' W 074°01'0 0.0
2017-Oct-21 15:30N 40°41' W 074°01'0 0.0
2017-Oct-21 15:00N 40°41' W 074°01'0 0.0
2017-Oct-21 14:00N 40°41' W 074°01'0 0.0
2017-Oct-21 13:30N 40°41' W 074°01'0 0.0
2017-Oct-21 13:00N 40°41' W 074°01'0 0.0
2017-Oct-21 12:30N 40°41' W 074°01'0 0.0
2017-Oct-21 12:00N 40°41' W 074°01'0 0.0
2017-Oct-21 11:30N 40°41' W 074°01'0 0.0
2017-Oct-21 11:00N 40°41' W 074°01'0 0.0
2017-Oct-21 10:30N 40°41' W 074°01'0 0.1
2017-Oct-21 10:00N 40°41' W 074°01'1 2.0
2017-Oct-21 09:30N 40°41' W 074°02'4 8.6
2017-Oct-21 09:00N 40°36' W 074°03'612.9
2017-Oct-21 08:30N 40°31' W 073°58'815.1
2017-Oct-21 08:00N 40°27' W 073°49'4 8.2
2017-Oct-21 07:30N 40°27' W 073°44'713.3
2017-Oct-21 07:00N 40°28' W 073°35'8220.4
2017-Oct-21 03:00N 40°30' W 071°48'346 8.4 320 / 201020.710.8 18.510.115.5
2017-Oct-19 10:00N 43°24' W 065°06'115 7.2 190 / 31025.210.8 13.311.813.2
2017-Oct-18 18:00N 45°12' W 066°00'24 2.7 270 / 161018.0 1.1 17.0 4.310.9
2017-Oct-18 09:00N 44°48' W 066°06'5711.4 230 / 261018.010.8 12.5 8.510.5
2017-Oct-18 04:00N 44°06' W 067°00'77 3.8 230 / 181020.910.8 11.0 4.311.0
2017-Oct-17 07:31N 43°43' W 068°42'120.9
2017-Oct-17 07:28N 43°42' W 068°43'7120.0
2017-Oct-17 03:54N 42°53' W 069°54'616.0
2017-Oct-17 03:30N 42°49' W 069°60'815.9
2017-Oct-17 03:00N 42°43' W 070°08'1019.2
2017-Oct-17 02:30N 42°37' W 070°17'1019.5
2017-Oct-17 02:01N 42°30' W 070°27'1019.6
2017-Oct-17 01:30N 42°26' W 070°39'918.1
2017-Oct-17 01:00N 42°23' W 070°51'612.5
2017-Oct-17 00:30N 42°20' W 070°58'3 5.4
2017-Oct-17 00:00N 42°21' W 071°01'0 0.5
2017-Oct-16 23:28N 42°21' W 071°02'0 0.0
2017-Oct-16 22:58N 42°21' W 071°02'0 0.0
2017-Oct-16 22:28N 42°21' W 071°02'0 0.0
2017-Oct-16 21:58N 42°21' W 071°02'0 0.0
2017-Oct-16 21:28N 42°21' W 071°02'0 0.0
2017-Oct-16 20:58N 42°21' W 071°02'0 0.0
2017-Oct-16 20:28N 42°21' W 071°02'0 0.0
2017-Oct-16 19:58N 42°21' W 071°02'0 0.0
2017-Oct-16 19:28N 42°21' W 071°02'0 0.0
2017-Oct-16 18:58N 42°21' W 071°02'0 0.0
2017-Oct-16 18:28N 42°21' W 071°02'0 0.0
2017-Oct-16 17:58N 42°21' W 071°02'0 0.0
2017-Oct-16 17:28N 42°21' W 071°02'0 0.0
2017-Oct-16 16:58N 42°21' W 071°02'0 0.0
2017-Oct-16 16:30N 42°21' W 071°02'0 0.0
2017-Oct-16 16:00N 42°21' W 071°02'0 0.0
2017-Oct-16 15:30N 42°21' W 071°02'0 0.0
2017-Oct-16 15:00N 42°21' W 071°02'2 2.4
2017-Oct-16 14:00N 42°20' W 070°59'612.6
2017-Oct-16 13:31N 42°24' W 070°52'612.1
2017-Oct-16 13:00N 42°23' W 070°44'816.7
2017-Oct-16 12:30N 42°22' W 070°33'816.7
2017-Oct-16 12:00N 42°21' W 070°21'816.7
2017-Oct-16 11:30N 42°20' W 070°10'816.2
2017-Oct-16 10:59N 42°18' W 069°59'11616.8
2017-Oct-16 04:03N 40°27' W 069°15'219.9
2017-Oct-16 03:58N 40°27' W 069°17'4221.3
2017-Oct-16 02:00N 40°24' W 070°12'411.4 220 / 351012.310.8 19.517.916.2
2017-Oct-16 01:39N 40°25' W 070°17'719.1
2017-Oct-16 01:15N 40°30' W 070°25'620.1
2017-Oct-16 00:58N 40°34' W 070°29'3620.2
2017-Oct-15 23:13N 41°02' W 070°58'419.8
2017-Oct-15 23:00N 41°06' W 071°01'1019.5
2017-Oct-15 22:31N 41°14' W 071°08'1019.8
2017-Oct-15 22:00N 41°21' W 071°17'811.6
2017-Oct-15 21:20N 41°28' W 071°22'2 1.7
2017-Oct-15 20:24N 41°29' W 071°20'0 0.0
2017-Oct-15 19:54N 41°29' W 071°20'0 0.0
2017-Oct-15 13:54N 41°29' W 071°20'0 0.0
2017-Oct-15 13:30N 41°29' W 071°20'0 0.0
2017-Oct-15 10:54N 41°29' W 071°20'5610.7
2017-Oct-15 05:43N 40°40' W 071°54'314.0
2017-Oct-15 05:30N 40°38' W 071°57'813.9
2017-Oct-15 04:57N 40°33' W 072°05'814.0
2017-Oct-15 04:21N 40°27' W 072°12'713.7
2017-Oct-15 03:49N 40°23' W 072°20'513.6
2017-Oct-15 03:29N 40°23' W 072°26'713.7
2017-Oct-15 03:00N 40°23' W 072°35'713.8
2017-Oct-15 02:30N 40°23' W 072°44'713.9
2017-Oct-15 01:59N 40°23' W 072°53'713.8
2017-Oct-15 01:30N 40°23' W 073°02'713.5
2017-Oct-15 01:00N 40°24' W 073°11'713.7
2017-Oct-15 00:31N 40°24' W 073°20'714.1
2017-Oct-15 00:01N 40°25' W 073°29'713.7
2017-Oct-14 23:30N 40°26' W 073°38'713.8
2017-Oct-14 23:01N 40°27' W 073°47'612.0
2017-Oct-14 22:30N 40°29' W 073°54'815.6
2017-Oct-14 22:00N 40°34' W 074°02'612.0
2017-Oct-14 21:30N 40°40' W 074°02'1 2.2
2017-Oct-14 20:55N 40°41' W 074°01'0 0.0
2017-Oct-14 20:28N 40°41' W 074°01'0 0.0
2017-Oct-14 19:52N 40°41' W 074°01'0 0.0
2017-Oct-14 19:28N 40°41' W 074°01'0 0.0
2017-Oct-14 18:52N 40°41' W 074°01'0 0.0
2017-Oct-14 18:28N 40°41' W 074°01'0 0.0
2017-Oct-14 17:55N 40°41' W 074°01'0 0.0
2017-Oct-14 17:28N 40°41' W 074°01'0 0.0
2017-Oct-14 16:58N 40°41' W 074°01'0 0.0
2017-Oct-14 16:28N 40°41' W 074°01'0 0.0
2017-Oct-14 15:58N 40°41' W 074°01'0 0.0
2017-Oct-14 15:28N 40°41' W 074°01'0 0.0
2017-Oct-14 14:58N 40°41' W 074°01'0 0.0
2017-Oct-14 14:28N 40°41' W 074°01'0 0.0
2017-Oct-14 13:58N 40°41' W 074°01'0 0.0
2017-Oct-14 13:30N 40°41' W 074°01'0 0.0
2017-Oct-14 13:00N 40°41' W 074°01'0 0.0
2017-Oct-14 12:30N 40°41' W 074°01'0 0.0
2017-Oct-14 12:00N 40°41' W 074°01'0 0.0
2017-Oct-14 11:29N 40°41' W 074°01'0 0.0
2017-Oct-14 10:59N 40°41' W 074°01'0 0.0
2017-Oct-14 10:28N 40°41' W 074°01'0 0.1
2017-Oct-14 10:00N 40°41' W 074°01'0 1.0
2017-Oct-14 09:30N 40°41' W 074°02'4 8.0
2017-Oct-14 09:00N 40°37' W 074°03'713.4
2017-Oct-14 08:30N 40°31' W 073°59'814.8
2017-Oct-14 07:59N 40°28' W 073°50'4 8.4
2017-Oct-14 07:30N 40°27' W 073°44'11615.4
2017-Oct-14 00:00N 40°30' W 071°12'3618.2 090 / 201027.510.8 16.513.915.9
2017-Oct-13 22:00N 40°30' W 070°24'15717.5 090 / 181028.410.8 16.013.314.0
2017-Oct-13 13:00N 41°18' W 067°06'5418.0 070 / 171032.710.8 13.510.612.2
2017-Oct-13 10:00N 41°54' W 066°12'15717.4 080 / 181032.210.8 13.0 7.912.7
2017-Oct-13 01:00N 43°54' W 063°54'   020 / 281030.810.8 11.0 3.014.6

Dump ship's entire track history